GMT,Max TemperatureF,Mean TemperatureF,Min TemperatureF,Max Dew PointF,MeanDew PointF,Min DewpointF,Max Humidity, Mean Humidity, Min Humidity, Max Sea Level PressureIn, Mean Sea Level PressureIn, Min Sea Level PressureIn, Max VisibilityMiles, Mean VisibilityMiles, Min VisibilityMiles, Max Wind SpeedMPH, Mean Wind SpeedMPH, Max Gust SpeedMPH,PrecipitationIn, CloudCover, Events, WindDirDegrees
2012-12-1,39,32,23,34,29,21,100,87,75,30.01,29.98,29.86,6,6,3,10,5,,0.00,1,Fog,279
2012-12-2,35,28,21,32,28,19,100,92,81,30.01,29.93,29.74,6,5,1,9,4,,0.00,5,Rain-Snow,92
2012-12-3,39,36,32,36,34,32,100,94,87,29.74,29.55,29.47,6,4,1,13,6,,0.00,6,Rain-Snow,295
2012-12-4,35,32,28,36,31,27,100,93,80,29.74,29.57,29.47,6,5,2,15,3,,0.00,4,Fog-Snow,39
2012-12-5,39,30,21,28,23,19,100,80,56,30.01,29.90,29.77,6,6,6,8,5,,0.00,1,,283
2012-12-6,41,32,23,37,33,21,93,89,81,29.95,29.54,29.27,6,6,2,26,8,31,0.00,6,Rain,249
2012-12-7,46,38,30,36,32,27,93,78,65,30.12,29.76,29.39,6,6,4,17,7,29,0.00,2,Rain,292
2012-12-8,48,38,28,46,38,25,100,92,82,30.18,30.10,29.98,6,6,4,22,7,,0.00,6,Rain,257
2012-12-9,48,40,32,43,35,28,87,76,66,30.18,30.00,29.92,6,6,5,25,14,34,0.00,3,Rain,291
2012-12-10,42,32,23,30,27,21,93,77,57,30.48,30.36,30.18,6,6,6,12,4,,0.00,2,,310
2012-12-11,32,24,17,30,23,16,100,94,80,30.51,30.42,30.27,6,4,0,4,1,,0.00,4,Fog,258
2012-12-12,32,26,21,30,27,19,100,96,93,30.24,30.03,29.83,5,3,2,6,2,,0.00,5,Fog-Rain,297
2012-12-13,35,32,30,32,29,21,93,87,69,29.83,29.66,29.44,6,5,2,10,4,,0.00,6,Rain-Snow,64
2012-12-14,41,36,30,39,32,21,100,85,69,29.44,28.99,28.68,6,6,3,18,12,28,0.00,7,Rain,75
2012-12-15,46,42,37,43,41,36,100,91,87,29.21,28.94,28.71,6,6,4,20,9,,0.00,6,Rain,226
2012-12-16,46,44,41,43,41,37,93,87,81,29.33,29.29,29.21,6,6,6,14,9,,0.00,5,Rain,145
2012-12-17,42,40,39,41,39,37,100,93,87,29.68,29.43,29.30,6,5,2,12,7,,0.00,6,Rain,60
2012-12-18,44,40,37,41,39,37,100,93,87,30.09,30.01,29.77,6,6,6,9,4,,0.00,6,,81
2012-12-19,44,42,41,39,37,36,93,81,71,30.06,29.93,29.80,6,6,3,20,12,28,0.00,6,Rain,88
2012-12-20,42,40,39,39,39,37,93,91,81,29.80,29.63,29.53,6,6,4,17,13,,0.00,6,Rain,71
2012-12-21,42,42,41,41,39,37,93,92,87,29.86,29.77,29.62,6,6,4,14,10,,0.00,6,Rain,70
2012-12-22,44,42,41,43,41,37,100,93,87,29.80,29.47,29.18,6,5,2,16,12,,0.00,6,Rain,71
2012-12-23,51,48,44,50,43,41,100,86,76,29.44,29.20,28.91,6,5,1,29,16,41,0.00,6,Rain,241
2012-12-24,46,42,39,45,42,37,100,91,87,29.44,29.29,29.18,6,6,4,18,10,,0.00,5,Rain,186
2012-12-25,44,40,37,41,38,36,100,91,81,29.33,29.19,29.12,6,6,4,16,5,,0.00,5,Fog-Rain,238
2012-12-26,42,38,33,41,37,34,100,93,81,29.44,29.34,29.27,6,6,2,18,11,,0.00,6,Fog-Rain,92
2012-12-27,39,36,33,36,33,30,100,87,70,29.92,29.67,29.33,6,6,3,16,11,,0.00,6,Rain,67
2012-12-28,53,45,37,50,45,34,94,88,82,29.86,29.49,29.21,6,6,3,38,15,53,0.00,6,Rain,188
2012-12-29,53,46,39,48,40,34,87,80,76,29.21,29.19,29.15,6,6,3,32,20,43,0.00,4,Rain,224
2012-12-30,50,42,35,48,38,34,100,88,76,29.39,29.31,29.21,6,5,2,25,17,43,0.00,6,Rain,232
2012-12-31,50,42,35,46,40,32,93,85,76,29.30,29.15,28.97,6,6,3,30,23,44,0.00,5,Rain,236